sensor_id;sensor_type;location;lat;lon;timestamp;temperature;humidity
490;DHT22;231;48.120;11.576;2023-05-10T00:00:25;13.60;99.90
490;DHT22;231;48.120;11.576;2023-05-10T00:02:52;13.60;99.90
490;DHT22;231;48.120;11.576;2023-05-10T00:05:19;13.60;99.90
490;DHT22;231;48.120;11.576;2023-05-10T00:07:46;13.50;99.90
490;DHT22;231;48.120;11.576;2023-05-10T00:10:13;13.60;99.90
490;DHT22;231;48.120;11.576;2023-05-10T00:12:39;13.60;99.90
490;DHT22;231;48.120;11.576;2023-05-10T00:15:09;13.50;99.90
490;DHT22;231;48.120;11.576;2023-05-10T00:17:35;13.60;99.90
490;DHT22;231;48.120;11.576;2023-05-10T00:20:03;13.50;99.90
490;DHT22;231;48.120;11.576;2023-05-10T00:22:30;13.50;99.90
490;DHT22;231;48.120;11.576;2023-05-10T00:24:57;13.50;99.90
490;DHT22;231;48.120;11.576;2023-05-10T00:27:24;13.50;99.90
490;DHT22;231;48.120;11.576;2023-05-10T00:29:51;13.50;99.90
490;DHT22;231;48.120;11.576;2023-05-10T00:32:20;13.50;99.90
490;DHT22;231;48.120;11.576;2023-05-10T00:34:47;13.50;99.90
490;DHT22;231;48.120;11.576;2023-05-10T00:37:13;13.50;99.90
490;DHT22;231;48.120;11.576;2023-05-10T00:39:41;13.40;99.90
490;DHT22;231;48.120;11.576;2023-05-10T00:42:08;13.40;99.90
490;DHT22;231;48.120;11.576;2023-05-10T00:44:34;13.50;99.90
490;DHT22;231;48.120;11.576;2023-05-10T00:47:01;13.50;99.90
490;DHT22;231;48.120;11.576;2023-05-10T00:49:32;13.40;99.90
490;DHT22;231;48.120;11.576;2023-05-10T00:51:59;13.40;99.90
490;DHT22;231;48.120;11.576;2023-05-10T00:54:27;13.40;99.90
490;DHT22;231;48.120;11.576;2023-05-10T00:56:55;13.40;99.90
490;DHT22;231;48.120;11.576;2023-05-10T00:59:22;13.40;99.90
490;DHT22;231;48.120;11.576;2023-05-10T01:01:50;13.40;99.90
490;DHT22;231;48.120;11.576;2023-05-10T01:04:17;13.40;99.90
490;DHT22;231;48.120;11.576;2023-05-10T01:06:46;13.40;99.90
490;DHT22;231;48.120;11.576;2023-05-10T01:09:13;13.40;99.90
490;DHT22;231;48.120;11.576;2023-05-10T01:11:40;13.40;99.90
490;DHT22;231;48.120;11.576;2023-05-10T01:14:07;13.30;99.90
490;DHT22;231;48.120;11.576;2023-05-10T01:16:37;13.30;99.90
490;DHT22;231;48.120;11.576;2023-05-10T01:19:06;13.30;99.90
490;DHT22;231;48.120;11.576;2023-05-10T01:21:41;13.30;99.90
490;DHT22;231;48.120;11.576;2023-05-10T01:24:51;13.30;99.90
490;DHT22;231;48.120;11.576;2023-05-10T01:31:03;13.30;99.90
490;DHT22;231;48.120;11.576;2023-05-10T01:33:35;13.20;99.90
490;DHT22;231;48.120;11.576;2023-05-10T01:36:13;13.20;99.90
490;DHT22;231;48.120;11.576;2023-05-10T01:38:49;13.20;99.90
490;DHT22;231;48.120;11.576;2023-05-10T01:41:19;13.20;99.90
490;DHT22;231;48.120;11.576;2023-05-10T01:43:55;13.20;99.90
490;DHT22;231;48.120;11.576;2023-05-10T01:46:28;13.20;99.90
490;DHT22;231;48.120;11.576;2023-05-10T01:48:59;13.10;99.90
490;DHT22;231;48.120;11.576;2023-05-10T01:51:31;13.20;99.90
490;DHT22;231;48.120;11.576;2023-05-10T01:54:01;13.20;99.90
490;DHT22;231;48.120;11.576;2023-05-10T01:56:31;13.10;99.90
490;DHT22;231;48.120;11.576;2023-05-10T01:59:00;13.10;99.90
490;DHT22;231;48.120;11.576;2023-05-10T02:01:29;13.10;99.90
490;DHT22;231;48.120;11.576;2023-05-10T02:03:58;13.10;99.90
490;DHT22;231;48.120;11.576;2023-05-10T02:06:27;13.10;99.90
490;DHT22;231;48.120;11.576;2023-05-10T02:08:54;13.10;99.90
490;DHT22;231;48.120;11.576;2023-05-10T02:11:21;13.10;99.90
490;DHT22;231;48.120;11.576;2023-05-10T02:13:50;13.10;99.90
490;DHT22;231;48.120;11.576;2023-05-10T02:16:21;13.10;99.90
490;DHT22;231;48.120;11.576;2023-05-10T02:18:50;13.10;99.90
490;DHT22;231;48.120;11.576;2023-05-10T02:21:19;13.10;99.90
490;DHT22;231;48.120;11.576;2023-05-10T02:23:48;13.10;99.90
490;DHT22;231;48.120;11.576;2023-05-10T02:26:18;13.10;99.90
490;DHT22;231;48.120;11.576;2023-05-10T02:28:47;13.00;99.90
490;DHT22;231;48.120;11.576;2023-05-10T02:31:16;13.00;99.90
490;DHT22;231;48.120;11.576;2023-05-10T02:33:48;13.10;99.90
490;DHT22;231;48.120;11.576;2023-05-10T02:36:16;13.10;99.90
490;DHT22;231;48.120;11.576;2023-05-10T02:38:46;13.00;99.90
490;DHT22;231;48.120;11.576;2023-05-10T02:41:14;13.00;99.90
490;DHT22;231;48.120;11.576;2023-05-10T02:43:42;13.00;99.90
490;DHT22;231;48.120;11.576;2023-05-10T02:46:09;13.00;99.90
490;DHT22;231;48.120;11.576;2023-05-10T02:48:36;13.00;99.90
490;DHT22;231;48.120;11.576;2023-05-10T02:51:05;13.00;99.90
490;DHT22;231;48.120;11.576;2023-05-10T02:53:35;13.00;99.90
490;DHT22;231;48.120;11.576;2023-05-10T02:56:11;13.00;99.90
490;DHT22;231;48.120;11.576;2023-05-10T02:58:39;13.00;99.90
490;DHT22;231;48.120;11.576;2023-05-10T03:01:06;13.00;99.90
490;DHT22;231;48.120;11.576;2023-05-10T03:03:34;13.00;99.90
490;DHT22;231;48.120;11.576;2023-05-10T03:06:00;13.00;99.90
490;DHT22;231;48.120;11.576;2023-05-10T03:08:28;13.00;99.90
490;DHT22;231;48.120;11.576;2023-05-10T03:11:03;13.00;99.90
490;DHT22;231;48.120;11.576;2023-05-10T03:13:42;13.00;99.90
490;DHT22;231;48.120;11.576;2023-05-10T03:16:14;13.00;99.90
490;DHT22;231;48.120;11.576;2023-05-10T03:18:44;13.00;99.90
490;DHT22;231;48.120;11.576;2023-05-10T03:21:17;12.90;99.90
490;DHT22;231;48.120;11.576;2023-05-10T03:23:47;13.00;99.90
490;DHT22;231;48.120;11.576;2023-05-10T03:26:21;13.00;99.90
490;DHT22;231;48.120;11.576;2023-05-10T03:28:52;13.00;99.90
490;DHT22;231;48.120;11.576;2023-05-10T03:31:20;13.00;99.90
490;DHT22;231;48.120;11.576;2023-05-10T03:33:47;13.00;99.90
490;DHT22;231;48.120;11.576;2023-05-10T03:36:14;13.00;99.90
490;DHT22;231;48.120;11.576;2023-05-10T03:38:41;13.00;99.90
490;DHT22;231;48.120;11.576;2023-05-10T03:41:08;13.00;99.90
490;DHT22;231;48.120;11.576;2023-05-10T03:43:35;13.00;99.90
490;DHT22;231;48.120;11.576;2023-05-10T03:46:03;13.00;99.90
490;DHT22;231;48.120;11.576;2023-05-10T03:48:30;13.00;99.90
490;DHT22;231;48.120;11.576;2023-05-10T03:50:57;13.00;99.90
490;DHT22;231;48.120;11.576;2023-05-10T03:53:24;13.00;99.90
490;DHT22;231;48.120;11.576;2023-05-10T03:55:51;13.00;99.90
490;DHT22;231;48.120;11.576;2023-05-10T03:58:18;13.00;99.90
490;DHT22;231;48.120;11.576;2023-05-10T04:00:45;13.00;99.90
490;DHT22;231;48.120;11.576;2023-05-10T04:03:13;13.00;99.90
490;DHT22;231;48.120;11.576;2023-05-10T04:05:40;13.10;99.90
490;DHT22;231;48.120;11.576;2023-05-10T04:08:06;13.10;99.90
490;DHT22;231;48.120;11.576;2023-05-10T04:10:33;13.10;99.90
490;DHT22;231;48.120;11.576;2023-05-10T04:13:00;13.10;99.90
490;DHT22;231;48.120;11.576;2023-05-10T04:15:27;13.20;99.90
490;DHT22;231;48.120;11.576;2023-05-10T04:17:54;13.20;99.90
490;DHT22;231;48.120;11.576;2023-05-10T04:20:22;13.20;99.90
490;DHT22;231;48.120;11.576;2023-05-10T04:22:49;13.20;99.90
490;DHT22;231;48.120;11.576;2023-05-10T04:25:16;13.30;99.90
490;DHT22;231;48.120;11.576;2023-05-10T04:27:42;13.30;99.90
490;DHT22;231;48.120;11.576;2023-05-10T04:30:10;13.30;99.90
490;DHT22;231;48.120;11.576;2023-05-10T04:32:37;13.30;99.90
490;DHT22;231;48.120;11.576;2023-05-10T04:35:04;13.30;99.90
490;DHT22;231;48.120;11.576;2023-05-10T04:37:32;13.40;99.90
490;DHT22;231;48.120;11.576;2023-05-10T04:39:59;13.40;99.90
490;DHT22;231;48.120;11.576;2023-05-10T04:42:26;13.40;99.90
490;DHT22;231;48.120;11.576;2023-05-10T04:44:53;13.40;99.90
490;DHT22;231;48.120;11.576;2023-05-10T04:47:20;13.50;99.90
490;DHT22;231;48.120;11.576;2023-05-10T04:49:47;13.50;99.90
490;DHT22;231;48.120;11.576;2023-05-10T04:52:13;13.40;99.90
490;DHT22;231;48.120;11.576;2023-05-10T04:54:44;13.40;99.90
490;DHT22;231;48.120;11.576;2023-05-10T04:57:10;13.40;99.90
490;DHT22;231;48.120;11.576;2023-05-10T04:59:38;13.40;99.90
490;DHT22;231;48.120;11.576;2023-05-10T05:02:05;13.30;99.90
490;DHT22;231;48.120;11.576;2023-05-10T05:04:32;13.30;99.90
490;DHT22;231;48.120;11.576;2023-05-10T05:06:59;13.20;99.90
490;DHT22;231;48.120;11.576;2023-05-10T05:09:25;13.20;99.90
490;DHT22;231;48.120;11.576;2023-05-10T05:11:54;13.30;99.90
490;DHT22;231;48.120;11.576;2023-05-10T05:14:21;13.30;99.90
490;DHT22;231;48.120;11.576;2023-05-10T05:16:50;13.20;99.90
490;DHT22;231;48.120;11.576;2023-05-10T05:19:17;13.20;99.90
490;DHT22;231;48.120;11.576;2023-05-10T05:21:44;13.10;99.90
490;DHT22;231;48.120;11.576;2023-05-10T05:24:11;13.10;99.90
490;DHT22;231;48.120;11.576;2023-05-10T05:26:38;13.00;99.90
490;DHT22;231;48.120;11.576;2023-05-10T05:29:06;13.00;99.90
490;DHT22;231;48.120;11.576;2023-05-10T05:31:33;13.10;99.90
490;DHT22;231;48.120;11.576;2023-05-10T05:34:03;13.10;99.90
490;DHT22;231;48.120;11.576;2023-05-10T05:36:30;13.10;99.90
490;DHT22;231;48.120;11.576;2023-05-10T05:38:57;13.20;99.90
490;DHT22;231;48.120;11.576;2023-05-10T05:41:24;13.20;99.90
490;DHT22;231;48.120;11.576;2023-05-10T05:43:51;13.20;99.90
490;DHT22;231;48.120;11.576;2023-05-10T05:46:19;13.10;99.90
490;DHT22;231;48.120;11.576;2023-05-10T05:48:46;13.00;99.90
490;DHT22;231;48.120;11.576;2023-05-10T05:51:13;13.00;99.90
490;DHT22;231;48.120;11.576;2023-05-10T05:53:39;12.90;99.90
490;DHT22;231;48.120;11.576;2023-05-10T05:56:06;12.90;99.90
490;DHT22;231;48.120;11.576;2023-05-10T05:58:34;12.90;99.90
490;DHT22;231;48.120;11.576;2023-05-10T06:01:01;12.90;99.90
490;DHT22;231;48.120;11.576;2023-05-10T06:03:29;13.00;99.90
490;DHT22;231;48.120;11.576;2023-05-10T06:05:56;13.10;99.90
490;DHT22;231;48.120;11.576;2023-05-10T06:08:23;13.20;99.90
490;DHT22;231;48.120;11.576;2023-05-10T06:10:51;13.30;99.90
490;DHT22;231;48.120;11.576;2023-05-10T06:13:18;13.30;99.90
490;DHT22;231;48.120;11.576;2023-05-10T06:15:44;13.40;99.90
490;DHT22;231;48.120;11.576;2023-05-10T06:18:11;13.50;99.90
490;DHT22;231;48.120;11.576;2023-05-10T06:20:41;13.60;99.90
490;DHT22;231;48.120;11.576;2023-05-10T06:23:10;13.60;99.90
490;DHT22;231;48.120;11.576;2023-05-10T06:25:37;13.70;99.90
490;DHT22;231;48.120;11.576;2023-05-10T06:28:04;13.70;99.90
490;DHT22;231;48.120;11.576;2023-05-10T06:30:31;13.70;99.90
490;DHT22;231;48.120;11.576;2023-05-10T06:32:58;13.70;99.90
490;DHT22;231;48.120;11.576;2023-05-10T06:35:25;13.80;99.90
490;DHT22;231;48.120;11.576;2023-05-10T06:37:53;13.80;99.90
490;DHT22;231;48.120;11.576;2023-05-10T06:40:20;13.80;99.90
490;DHT22;231;48.120;11.576;2023-05-10T06:42:47;13.90;99.90
490;DHT22;231;48.120;11.576;2023-05-10T06:45:14;14.00;99.90
490;DHT22;231;48.120;11.576;2023-05-10T06:47:41;14.10;99.90
490;DHT22;231;48.120;11.576;2023-05-10T06:50:09;14.30;99.90
490;DHT22;231;48.120;11.576;2023-05-10T06:52:37;14.50;99.90
490;DHT22;231;48.120;11.576;2023-05-10T06:55:06;14.70;99.90
490;DHT22;231;48.120;11.576;2023-05-10T06:57:33;14.70;99.90
490;DHT22;231;48.120;11.576;2023-05-10T07:00:01;14.80;99.90
490;DHT22;231;48.120;11.576;2023-05-10T07:02:29;14.90;99.90
490;DHT22;231;48.120;11.576;2023-05-10T07:04:56;15.00;99.90
490;DHT22;231;48.120;11.576;2023-05-10T07:07:23;15.00;99.90
490;DHT22;231;48.120;11.576;2023-05-10T07:09:50;15.10;99.90
490;DHT22;231;48.120;11.576;2023-05-10T07:12:18;15.50;99.90
490;DHT22;231;48.120;11.576;2023-05-10T07:14:45;15.80;99.90
490;DHT22;231;48.120;11.576;2023-05-10T07:17:12;16.00;99.90
490;DHT22;231;48.120;11.576;2023-05-10T07:19:38;16.20;99.90
490;DHT22;231;48.120;11.576;2023-05-10T07:22:05;16.30;99.90
490;DHT22;231;48.120;11.576;2023-05-10T07:24:32;16.40;99.90
490;DHT22;231;48.120;11.576;2023-05-10T07:26:59;16.70;99.90
490;DHT22;231;48.120;11.576;2023-05-10T07:29:27;17.00;99.90
490;DHT22;231;48.120;11.576;2023-05-10T07:31:55;17.30;99.90
490;DHT22;231;48.120;11.576;2023-05-10T07:34:22;17.60;99.90
490;DHT22;231;48.120;11.576;2023-05-10T07:36:48;18.20;99.90
490;DHT22;231;48.120;11.576;2023-05-10T07:39:15;18.50;99.90
490;DHT22;231;48.120;11.576;2023-05-10T07:41:42;19.00;99.90
490;DHT22;231;48.120;11.576;2023-05-10T07:44:09;19.00;99.90
490;DHT22;231;48.120;11.576;2023-05-10T07:46:38;19.10;99.90
490;DHT22;231;48.120;11.576;2023-05-10T07:49:04;19.80;99.90
490;DHT22;231;48.120;11.576;2023-05-10T07:51:31;20.80;99.90
490;DHT22;231;48.120;11.576;2023-05-10T07:53:59;22.00;99.90
490;DHT22;231;48.120;11.576;2023-05-10T07:56:27;23.00;99.90
490;DHT22;231;48.120;11.576;2023-05-10T07:58:55;23.80;99.90
490;DHT22;231;48.120;11.576;2023-05-10T08:01:22;24.30;99.90
490;DHT22;231;48.120;11.576;2023-05-10T08:03:50;24.40;99.90
490;DHT22;231;48.120;11.576;2023-05-10T08:06:19;24.20;99.90
490;DHT22;231;48.120;11.576;2023-05-10T08:08:46;24.40;99.90
490;DHT22;231;48.120;11.576;2023-05-10T08:11:15;25.20;99.90
490;DHT22;231;48.120;11.576;2023-05-10T08:13:42;25.90;99.90
490;DHT22;231;48.120;11.576;2023-05-10T08:16:09;26.30;67.20
490;DHT22;231;48.120;11.576;2023-05-10T08:18:36;25.90;59.50
490;DHT22;231;48.120;11.576;2023-05-10T08:21:05;25.00;60.60
490;DHT22;231;48.120;11.576;2023-05-10T08:23:32;24.10;61.30
490;DHT22;231;48.120;11.576;2023-05-10T08:25:59;23.30;60.80
490;DHT22;231;48.120;11.576;2023-05-10T08:28:25;23.10;82.20
490;DHT22;231;48.120;11.576;2023-05-10T08:30:52;23.00;90.10
490;DHT22;231;48.120;11.576;2023-05-10T08:33:19;22.60;72.10
490;DHT22;231;48.120;11.576;2023-05-10T08:35:46;22.20;80.50
490;DHT22;231;48.120;11.576;2023-05-10T08:38:14;21.60;78.10
490;DHT22;231;48.120;11.576;2023-05-10T08:40:42;21.10;79.70
490;DHT22;231;48.120;11.576;2023-05-10T08:43:11;20.60;85.40
490;DHT22;231;48.120;11.576;2023-05-10T08:45:41;20.10;85.30
490;DHT22;231;48.120;11.576;2023-05-10T08:48:09;19.70;85.40
490;DHT22;231;48.120;11.576;2023-05-10T08:50:37;19.30;89.40
490;DHT22;231;48.120;11.576;2023-05-10T08:53:06;19.10;93.80
490;DHT22;231;48.120;11.576;2023-05-10T08:55:37;19.10;97.70
490;DHT22;231;48.120;11.576;2023-05-10T08:58:05;19.10;99.90
490;DHT22;231;48.120;11.576;2023-05-10T09:00:33;19.00;99.90
490;DHT22;231;48.120;11.576;2023-05-10T09:03:01;18.80;99.90
490;DHT22;231;48.120;11.576;2023-05-10T09:05:28;18.40;98.10
490;DHT22;231;48.120;11.576;2023-05-10T09:07:55;18.20;99.90
490;DHT22;231;48.120;11.576;2023-05-10T09:10:23;18.00;99.90
490;DHT22;231;48.120;11.576;2023-05-10T09:12:56;17.90;99.90
490;DHT22;231;48.120;11.576;2023-05-10T09:15:23;18.00;99.90
490;DHT22;231;48.120;11.576;2023-05-10T09:17:50;18.80;99.90
490;DHT22;231;48.120;11.576;2023-05-10T09:20:17;19.60;99.90
490;DHT22;231;48.120;11.576;2023-05-10T09:22:44;19.90;99.90
490;DHT22;231;48.120;11.576;2023-05-10T09:25:12;19.80;99.90
490;DHT22;231;48.120;11.576;2023-05-10T09:27:40;19.90;99.90
490;DHT22;231;48.120;11.576;2023-05-10T09:30:09;19.90;99.90
490;DHT22;231;48.120;11.576;2023-05-10T09:32:37;19.80;99.40
490;DHT22;231;48.120;11.576;2023-05-10T09:35:09;19.40;91.70
490;DHT22;231;48.120;11.576;2023-05-10T09:37:36;19.10;91.00
490;DHT22;231;48.120;11.576;2023-05-10T09:40:07;18.80;91.60
490;DHT22;231;48.120;11.576;2023-05-10T09:42:34;18.70;96.00
490;DHT22;231;48.120;11.576;2023-05-10T09:45:05;18.90;99.90
490;DHT22;231;48.120;11.576;2023-05-10T09:47:35;19.30;99.90
490;DHT22;231;48.120;11.576;2023-05-10T09:50:03;19.90;99.90
490;DHT22;231;48.120;11.576;2023-05-10T09:52:30;20.50;99.90
490;DHT22;231;48.120;11.576;2023-05-10T09:54:57;20.90;99.90
490;DHT22;231;48.120;11.576;2023-05-10T09:57:25;21.40;85.30
490;DHT22;231;48.120;11.576;2023-05-10T09:59:52;22.10;27.70
490;DHT22;231;48.120;11.576;2023-05-10T10:02:20;23.00;18.90
490;DHT22;231;48.120;11.576;2023-05-10T10:04:50;23.90;12.10
490;DHT22;231;48.120;11.576;2023-05-10T10:07:23;25.10;9.30
490;DHT22;231;48.120;11.576;2023-05-10T10:09:51;26.10;5.80
490;DHT22;231;48.120;11.576;2023-05-10T10:12:18;26.30;3.20
490;DHT22;231;48.120;11.576;2023-05-10T10:14:46;26.40;2.00
490;DHT22;231;48.120;11.576;2023-05-10T10:17:15;26.60;1.80
490;DHT22;231;48.120;11.576;2023-05-10T10:19:42;26.90;1.20
490;DHT22;231;48.120;11.576;2023-05-10T10:22:10;27.00;1.00
490;DHT22;231;48.120;11.576;2023-05-10T10:24:37;26.80;1.00
490;DHT22;231;48.120;11.576;2023-05-10T10:28:35;26.50;1.00
490;DHT22;231;48.120;11.576;2023-05-10T10:30:29;26.40;1.00
490;DHT22;231;48.120;11.576;2023-05-10T10:33:44;26.40;1.00
490;DHT22;231;48.120;11.576;2023-05-10T10:37:25;26.40;1.00
490;DHT22;231;48.120;11.576;2023-05-10T10:41:26;27.20;1.00
490;DHT22;231;48.120;11.576;2023-05-10T10:47:53;30.00;1.00
490;DHT22;231;48.120;11.576;2023-05-10T10:50:20;30.40;1.00
490;DHT22;231;48.120;11.576;2023-05-10T10:52:50;30.60;1.00
490;DHT22;231;48.120;11.576;2023-05-10T10:55:19;30.50;1.00
490;DHT22;231;48.120;11.576;2023-05-10T10:57:49;30.10;1.00
490;DHT22;231;48.120;11.576;2023-05-10T11:00:22;29.40;1.00
490;DHT22;231;48.120;11.576;2023-05-10T11:02:51;28.70;1.00
490;DHT22;231;48.120;11.576;2023-05-10T11:05:35;28.00;1.00
490;DHT22;231;48.120;11.576;2023-05-10T11:08:15;27.10;1.10
490;DHT22;231;48.120;11.576;2023-05-10T11:11:02;25.80;8.30
490;DHT22;231;48.120;11.576;2023-05-10T11:13:33;24.00;11.70
490;DHT22;231;48.120;11.576;2023-05-10T11:16:11;22.40;15.20
490;DHT22;231;48.120;11.576;2023-05-10T11:18:38;21.10;19.30
490;DHT22;231;48.120;11.576;2023-05-10T11:21:05;19.90;22.90
490;DHT22;231;48.120;11.576;2023-05-10T11:23:48;19.00;28.20
490;DHT22;231;48.120;11.576;2023-05-10T11:26:16;18.20;35.00
490;DHT22;231;48.120;11.576;2023-05-10T11:28:44;17.70;45.80
490;DHT22;231;48.120;11.576;2023-05-10T11:31:13;17.40;57.70
490;DHT22;231;48.120;11.576;2023-05-10T11:33:47;17.00;73.00
490;DHT22;231;48.120;11.576;2023-05-10T11:36:15;16.60;91.10
490;DHT22;231;48.120;11.576;2023-05-10T11:38:44;16.20;97.90
490;DHT22;231;48.120;11.576;2023-05-10T11:41:11;15.80;99.90
490;DHT22;231;48.120;11.576;2023-05-10T11:43:39;15.40;99.50
490;DHT22;231;48.120;11.576;2023-05-10T11:46:07;14.90;99.90
490;DHT22;231;48.120;11.576;2023-05-10T11:48:34;14.50;99.90
490;DHT22;231;48.120;11.576;2023-05-10T11:51:01;14.10;99.90
490;DHT22;231;48.120;11.576;2023-05-10T11:53:31;14.00;99.90
490;DHT22;231;48.120;11.576;2023-05-10T11:56:05;13.90;99.90
490;DHT22;231;48.120;11.576;2023-05-10T11:58:32;13.80;99.90
490;DHT22;231;48.120;11.576;2023-05-10T12:01:01;13.70;99.90
490;DHT22;231;48.120;11.576;2023-05-10T12:03:29;13.70;99.90
490;DHT22;231;48.120;11.576;2023-05-10T12:05:57;13.60;99.90
490;DHT22;231;48.120;11.576;2023-05-10T12:08:26;13.60;99.90
490;DHT22;231;48.120;11.576;2023-05-10T12:10:54;13.60;99.90
490;DHT22;231;48.120;11.576;2023-05-10T12:13:31;13.60;99.90
490;DHT22;231;48.120;11.576;2023-05-10T12:15:58;13.60;99.90
490;DHT22;231;48.120;11.576;2023-05-10T12:18:26;13.70;99.90
490;DHT22;231;48.120;11.576;2023-05-10T12:20:53;13.70;99.90
490;DHT22;231;48.120;11.576;2023-05-10T12:23:20;13.70;99.90
490;DHT22;231;48.120;11.576;2023-05-10T12:25:47;13.80;99.90
490;DHT22;231;48.120;11.576;2023-05-10T12:28:14;13.70;99.90
490;DHT22;231;48.120;11.576;2023-05-10T12:30:42;13.80;99.90
490;DHT22;231;48.120;11.576;2023-05-10T12:33:11;13.80;99.90
490;DHT22;231;48.120;11.576;2023-05-10T12:35:47;13.80;99.90
490;DHT22;231;48.120;11.576;2023-05-10T12:38:25;13.90;99.90
490;DHT22;231;48.120;11.576;2023-05-10T12:40:54;13.80;99.90
490;DHT22;231;48.120;11.576;2023-05-10T12:43:21;13.90;99.90
490;DHT22;231;48.120;11.576;2023-05-10T12:45:50;14.00;99.90
490;DHT22;231;48.120;11.576;2023-05-10T12:48:16;14.20;99.90
490;DHT22;231;48.120;11.576;2023-05-10T12:50:43;14.30;99.90
490;DHT22;231;48.120;11.576;2023-05-10T12:53:10;14.40;99.90
490;DHT22;231;48.120;11.576;2023-05-10T12:55:38;14.40;99.90
490;DHT22;231;48.120;11.576;2023-05-10T12:58:05;14.30;99.90
490;DHT22;231;48.120;11.576;2023-05-10T13:00:32;14.40;99.90
490;DHT22;231;48.120;11.576;2023-05-10T13:03:00;14.40;99.90
490;DHT22;231;48.120;11.576;2023-05-10T13:05:28;14.30;99.90
490;DHT22;231;48.120;11.576;2023-05-10T13:07:55;14.40;99.90
490;DHT22;231;48.120;11.576;2023-05-10T13:10:21;14.50;99.90
490;DHT22;231;48.120;11.576;2023-05-10T13:12:49;14.50;99.90
490;DHT22;231;48.120;11.576;2023-05-10T13:15:16;14.50;99.90
490;DHT22;231;48.120;11.576;2023-05-10T13:17:43;14.50;99.90
490;DHT22;231;48.120;11.576;2023-05-10T13:20:12;14.50;99.90
490;DHT22;231;48.120;11.576;2023-05-10T13:22:39;14.50;99.90
490;DHT22;231;48.120;11.576;2023-05-10T13:25:06;14.60;99.90
490;DHT22;231;48.120;11.576;2023-05-10T13:27:33;14.60;99.90
490;DHT22;231;48.120;11.576;2023-05-10T13:30:00;14.60;99.90
490;DHT22;231;48.120;11.576;2023-05-10T13:32:30;14.60;99.90
490;DHT22;231;48.120;11.576;2023-05-10T13:34:56;14.70;99.90
490;DHT22;231;48.120;11.576;2023-05-10T13:37:25;14.80;99.90
490;DHT22;231;48.120;11.576;2023-05-10T13:39:52;14.70;99.90
490;DHT22;231;48.120;11.576;2023-05-10T13:42:19;14.50;99.90
490;DHT22;231;48.120;11.576;2023-05-10T13:44:48;14.40;99.90
490;DHT22;231;48.120;11.576;2023-05-10T13:47:15;14.30;99.90
490;DHT22;231;48.120;11.576;2023-05-10T13:49:42;14.20;99.90
490;DHT22;231;48.120;11.576;2023-05-10T13:52:09;14.00;99.90
490;DHT22;231;48.120;11.576;2023-05-10T13:54:37;13.90;99.90
490;DHT22;231;48.120;11.576;2023-05-10T13:57:04;13.90;99.90
490;DHT22;231;48.120;11.576;2023-05-10T13:59:32;13.80;99.90
490;DHT22;231;48.120;11.576;2023-05-10T14:01:59;13.80;99.90
490;DHT22;231;48.120;11.576;2023-05-10T14:04:27;13.80;99.90
490;DHT22;231;48.120;11.576;2023-05-10T14:06:54;13.90;99.90
490;DHT22;231;48.120;11.576;2023-05-10T14:09:21;13.90;99.90
490;DHT22;231;48.120;11.576;2023-05-10T14:11:50;14.10;99.90
490;DHT22;231;48.120;11.576;2023-05-10T14:14:17;14.20;99.90
490;DHT22;231;48.120;11.576;2023-05-10T14:16:44;14.20;99.90
490;DHT22;231;48.120;11.576;2023-05-10T14:19:12;14.20;99.90
490;DHT22;231;48.120;11.576;2023-05-10T14:21:39;14.30;99.90
490;DHT22;231;48.120;11.576;2023-05-10T14:29:31;14.60;99.90
490;DHT22;231;48.120;11.576;2023-05-10T14:31:58;14.60;99.90
490;DHT22;231;48.120;11.576;2023-05-10T14:34:25;14.60;99.90
490;DHT22;231;48.120;11.576;2023-05-10T14:36:52;14.70;99.90
490;DHT22;231;48.120;11.576;2023-05-10T14:39:19;14.70;99.90
490;DHT22;231;48.120;11.576;2023-05-10T14:41:46;14.70;99.90
490;DHT22;231;48.120;11.576;2023-05-10T14:44:14;14.80;99.90
490;DHT22;231;48.120;11.576;2023-05-10T14:46:43;14.70;99.90
490;DHT22;231;48.120;11.576;2023-05-10T14:49:09;14.60;99.90
490;DHT22;231;48.120;11.576;2023-05-10T14:51:37;14.50;99.90
490;DHT22;231;48.120;11.576;2023-05-10T14:54:04;14.50;99.90
490;DHT22;231;48.120;11.576;2023-05-10T14:56:31;14.40;99.90
490;DHT22;231;48.120;11.576;2023-05-10T14:58:58;14.40;99.90
490;DHT22;231;48.120;11.576;2023-05-10T15:01:25;14.20;99.90
490;DHT22;231;48.120;11.576;2023-05-10T15:03:58;14.00;99.90
490;DHT22;231;48.120;11.576;2023-05-10T15:06:33;13.90;99.90
490;DHT22;231;48.120;11.576;2023-05-10T15:09:02;13.90;99.90
490;DHT22;231;48.120;11.576;2023-05-10T15:11:30;13.90;99.90
490;DHT22;231;48.120;11.576;2023-05-10T15:13:57;13.90;99.90
490;DHT22;231;48.120;11.576;2023-05-10T15:16:24;13.80;99.90
490;DHT22;231;48.120;11.576;2023-05-10T15:18:58;13.80;99.90
490;DHT22;231;48.120;11.576;2023-05-10T15:21:26;13.80;99.90
490;DHT22;231;48.120;11.576;2023-05-10T15:24:13;13.80;99.90
490;DHT22;231;48.120;11.576;2023-05-10T15:26:50;13.80;99.90
490;DHT22;231;48.120;11.576;2023-05-10T15:29:18;13.70;99.90
490;DHT22;231;48.120;11.576;2023-05-10T15:31:47;13.70;99.90
490;DHT22;231;48.120;11.576;2023-05-10T15:34:22;13.70;99.90
490;DHT22;231;48.120;11.576;2023-05-10T15:36:52;13.70;99.90
490;DHT22;231;48.120;11.576;2023-05-10T15:39:22;13.60;99.90
490;DHT22;231;48.120;11.576;2023-05-10T15:41:49;13.60;99.90
490;DHT22;231;48.120;11.576;2023-05-10T15:44:16;13.60;99.90
490;DHT22;231;48.120;11.576;2023-05-10T15:46:44;13.50;99.90
490;DHT22;231;48.120;11.576;2023-05-10T15:49:10;13.40;99.90
490;DHT22;231;48.120;11.576;2023-05-10T15:51:40;13.40;99.90
490;DHT22;231;48.120;11.576;2023-05-10T15:54:07;13.30;99.90
490;DHT22;231;48.120;11.576;2023-05-10T15:56:33;13.20;99.90
490;DHT22;231;48.120;11.576;2023-05-10T15:59:01;13.20;99.90
490;DHT22;231;48.120;11.576;2023-05-10T16:01:42;13.10;99.90
490;DHT22;231;48.120;11.576;2023-05-10T16:04:12;13.00;99.90
490;DHT22;231;48.120;11.576;2023-05-10T16:07:17;13.00;99.90
490;DHT22;231;48.120;11.576;2023-05-10T16:10:29;12.90;99.90
490;DHT22;231;48.120;11.576;2023-05-10T16:13:23;12.90;99.90
490;DHT22;231;48.120;11.576;2023-05-10T16:16:03;12.90;99.90
490;DHT22;231;48.120;11.576;2023-05-10T16:18:31;12.90;99.90
490;DHT22;231;48.120;11.576;2023-05-10T16:21:01;12.80;99.90
490;DHT22;231;48.120;11.576;2023-05-10T16:23:40;12.80;99.90
490;DHT22;231;48.120;11.576;2023-05-10T16:26:07;12.80;99.90
490;DHT22;231;48.120;11.576;2023-05-10T16:28:35;12.80;99.90
490;DHT22;231;48.120;11.576;2023-05-10T16:31:02;12.80;99.90
490;DHT22;231;48.120;11.576;2023-05-10T16:33:29;12.80;99.90
490;DHT22;231;48.120;11.576;2023-05-10T16:35:56;12.80;99.90
490;DHT22;231;48.120;11.576;2023-05-10T16:38:23;12.90;99.90
490;DHT22;231;48.120;11.576;2023-05-10T16:40:51;12.90;99.90
490;DHT22;231;48.120;11.576;2023-05-10T16:43:18;12.80;99.90
490;DHT22;231;48.120;11.576;2023-05-10T16:45:45;12.80;99.90